Time;durP1;ratioP1;P1;durP2;ratioP2;P2;SDS_P1;SDS_P2;PMS_P1;PMS_P2;Temp;Humidity;BMP_temperature;BMP_pressure;BME280_temperature;BME280_humidity;BME280_pressure;Samples;Min_cycle;Max_cycle;Signal;HPM_P1;HPM_P2
2022/06/28 00:00:59;;;;;;;7.53;4.40;;;;;;;18.67;78.73;94883.34;5091003;28;20309;-78
2022/06/28 00:03:26;;;;;;;6.47;4.03;;;;;;;18.59;78.88;94887.94;5090616;28;20682;-79
2022/06/28 00:05:53;;;;;;;5.50;4.00;;;;;;;18.59;78.71;94884.41;5090781;28;20226;-78
2022/06/28 00:08:19;;;;;;;4.60;3.28;;;;;;;18.60;78.13;94883.25;5090689;28;20248;-78
2022/06/28 00:10:46;;;;;;;5.75;4.00;;;;;;;18.62;78.26;94886.41;5090784;28;20202;-78
2022/06/28 00:13:15;;;;;;;6.03;4.20;;;;;;;18.58;78.07;94882.81;5091336;28;20193;-78
2022/06/28 00:18:26;;;;;;;6.45;4.03;;;;;;;18.45;78.97;94887.72;5090771;28;20314;-78
2022/06/28 00:20:53;;;;;;;6.53;4.30;;;;;;;18.40;79.36;94890.81;5090391;28;20661;-78
2022/06/28 00:23:20;;;;;;;8.38;4.03;;;;;;;18.35;78.65;94875.44;5090644;28;20229;-78
2022/06/28 00:25:46;;;;;;;5.32;3.80;;;;;;;18.36;78.42;94895.44;5090367;28;20234;-78
2022/06/28 00:28:15;;;;;;;4.95;3.58;;;;;;;18.32;78.33;94889.91;5090836;28;20616;-78
2022/06/28 00:30:42;;;;;;;4.85;3.75;;;;;;;18.31;78.17;94891.06;5090981;28;20633;-78
2022/06/28 00:33:08;;;;;;;4.90;3.60;;;;;;;18.32;77.98;94892.63;5090741;28;20653;-79
2022/06/28 00:35:35;;;;;;;5.85;3.88;;;;;;;18.25;78.47;94887.06;5091034;28;20593;-79
2022/06/28 00:38:02;;;;;;;5.93;4.40;;;;;;;18.29;78.67;94889.88;5091153;28;20217;-78
2022/06/28 00:40:29;;;;;;;10.38;4.30;;;;;;;18.22;79.77;94879.56;5090897;28;20255;-78
2022/06/28 00:42:56;;;;;;;7.63;4.18;;;;;;;18.21;80.16;94886.22;5090717;28;20663;-79
2022/06/28 00:45:25;;;;;;;6.43;4.18;;;;;;;18.21;80.17;94885.41;5090439;28;20222;-78
2022/06/28 00:47:52;;;;;;;8.00;4.03;;;;;;;18.17;80.64;94888.13;5090955;28;20203;-78
2022/06/28 00:50:19;;;;;;;6.00;3.65;;;;;;;18.15;80.06;94890.44;5090875;28;20272;-78
2022/06/28 00:53:08;;;;;;;7.82;5.03;;;;;;;18.13;79.98;94892.78;5091389;28;20248;-78
2022/06/28 00:55:35;;;;;;;8.30;4.60;;;;;;;18.15;79.64;94884.97;5094107;28;20226;-78
2022/06/28 00:58:02;;;;;;;8.02;3.97;;;;;;;18.14;79.75;94888.88;5094911;28;20203;-78
2022/06/28 01:00:32;;;;;;;9.50;4.18;;;;;;;18.10;80.24;94888.00;5094762;28;20635;-78
2022/06/28 01:02:59;;;;;;;6.30;4.68;;;;;;;18.05;80.01;94882.84;5094369;28;20283;-78
2022/06/28 01:05:26;;;;;;;7.15;3.70;;;;;;;18.08;80.60;94884.84;5094378;28;20233;-78
2022/06/28 01:07:53;;;;;;;6.10;4.22;;;;;;;18.03;80.88;94882.44;5094207;28;21055;-78
2022/06/28 01:10:20;;;;;;;5.97;4.22;;;;;;;18.06;80.67;94887.16;5094761;28;20226;-79
2022/06/28 01:12:46;;;;;;;10.38;5.60;;;;;;;18.00;80.95;94891.41;5094086;28;20230;-78
2022/06/28 01:15:13;;;;;;;6.78;4.03;;;;;;;17.96;81.39;94890.53;5094279;28;20202;-78
2022/06/28 01:17:42;;;;;;;7.22;4.15;;;;;;;17.92;81.17;94886.94;5094224;28;20198;-78
2022/06/28 01:20:10;;;;;;;4.38;3.17;;;;;;;17.68;81.03;94886.19;5094055;28;20198;-78
2022/06/28 01:22:40;;;;;;;5.53;4.15;;;;;;;17.46;81.35;94883.41;5094075;28;20226;-78
2022/06/28 01:25:09;;;;;;;10.75;3.92;;;;;;;17.51;81.33;94889.38;5093602;28;20321;-78
2022/06/28 01:27:36;;;;;;;5.43;4.10;;;;;;;17.57;81.09;94882.44;5093812;28;20251;-78
2022/06/28 01:30:04;;;;;;;6.03;4.03;;;;;;;17.63;80.96;94880.19;5094393;28;20251;-78
2022/06/28 01:32:31;;;;;;;5.72;3.42;;;;;;;17.65;80.63;94884.16;5094432;28;20203;-78
2022/06/28 01:34:58;;;;;;;7.78;3.97;;;;;;;17.66;80.74;94876.75;5093301;28;20291;-78
2022/06/28 01:37:25;;;;;;;5.05;3.75;;;;;;;17.67;80.98;94881.84;5093396;28;20205;-78
2022/06/28 01:39:53;;;;;;;5.57;3.65;;;;;;;17.68;80.81;94875.22;5093265;28;20670;-78
2022/06/28 01:42:20;;;;;;;5.50;3.72;;;;;;;17.64;81.13;94877.09;5093849;28;20230;-78
2022/06/28 01:44:50;;;;;;;6.13;3.72;;;;;;;17.58;81.57;94878.56;5081298;28;20679;-78
2022/06/28 01:47:19;;;;;;;7.65;3.63;;;;;;;17.57;81.74;94890.66;5093879;28;20238;-78
2022/06/28 01:49:46;;;;;;;6.15;4.10;;;;;;;17.17;82.34;94884.84;5093601;28;20279;-78
2022/06/28 01:52:13;;;;;;;6.15;3.53;;;;;;;17.00;82.69;94880.63;5093639;28;20778;-78
2022/06/28 01:54:40;;;;;;;7.72;4.65;;;;;;;17.06;83.17;94873.72;5093669;28;20194;-77
2022/06/28 01:57:08;;;;;;;5.28;4.47;;;;;;;17.11;83.02;94867.91;5093405;28;20222;-78
2022/06/28 01:59:35;;;;;;;6.38;3.97;;;;;;;17.10;82.65;94871.81;5093883;28;20202;-78
2022/06/28 02:02:02;;;;;;;7.22;4.45;;;;;;;17.17;82.52;94868.44;5093761;28;20609;-78
2022/06/28 02:04:30;;;;;;;6.85;4.25;;;;;;;17.16;82.56;94866.84;5093160;28;20565;-78
2022/06/28 02:06:58;;;;;;;10.10;4.63;;;;;;;17.09;83.39;94872.16;5092919;28;20234;-78
2022/06/28 02:09:26;;;;;;;6.38;4.60;;;;;;;16.95;83.81;94873.47;5093338;28;20225;-78
2022/06/28 02:11:53;;;;;;;5.10;3.92;;;;;;;16.91;84.30;94877.31;5093583;28;20214;-77
2022/06/28 02:14:21;;;;;;;7.03;3.95;;;;;;;16.85;85.06;94882.28;5092679;28;20279;-77
2022/06/28 02:16:48;;;;;;;7.35;4.07;;;;;;;16.76;85.55;94884.47;5093143;28;20202;-79
2022/06/28 02:19:15;;;;;;;9.10;4.38;;;;;;;16.74;86.28;94881.28;5092894;28;20287;-79
2022/06/28 02:21:44;;;;;;;6.93;4.40;;;;;;;16.66;86.26;94882.31;5092759;28;20206;-77
2022/06/28 02:24:12;;;;;;;6.05;4.47;;;;;;;16.80;86.08;94877.13;5092412;28;20202;-78
2022/06/28 02:26:39;;;;;;;6.53;4.55;;;;;;;16.85;85.74;94879.56;5092772;28;20287;-77
2022/06/28 02:29:07;;;;;;;7.63;4.60;;;;;;;16.87;85.66;94885.47;5092967;28;20202;-77
2022/06/28 02:31:36;;;;;;;5.93;4.03;;;;;;;16.79;85.77;94881.00;5093020;28;20313;-77
2022/06/28 02:34:04;;;;;;;9.73;5.05;;;;;;;16.96;85.59;94885.22;5093104;28;20309;-77
2022/06/28 02:41:59;;;;;;;7.35;4.50;;;;;;;17.10;84.36;94881.97;5092845;28;20221;-79
2022/06/28 02:44:26;;;;;;;6.88;4.82;;;;;;;17.15;84.10;94892.63;5092407;28;20202;-79
2022/06/28 02:46:54;;;;;;;9.38;4.53;;;;;;;17.19;83.89;94896.25;5092600;28;20646;-79
2022/06/28 02:49:21;;;;;;;7.05;4.47;;;;;;;17.21;83.82;94886.50;5092567;28;20256;-78
2022/06/28 02:51:48;;;;;;;12.25;5.53;;;;;;;17.27;83.63;94881.50;5092499;28;20631;-79
2022/06/28 02:54:15;;;;;;;8.70;5.80;;;;;;;17.29;83.32;94884.69;5092508;28;20252;-78
2022/06/28 02:56:42;;;;;;;7.05;4.75;;;;;;;17.21;83.72;94881.03;5092522;28;20218;-78
2022/06/28 02:59:09;;;;;;;7.80;5.70;;;;;;;17.27;83.68;94873.28;5091941;28;20571;-78
2022/06/28 03:01:36;;;;;;;7.55;4.60;;;;;;;17.32;83.75;94870.28;5092405;28;20233;-78
2022/06/28 03:04:04;;;;;;;11.43;4.60;;;;;;;17.43;83.60;94868.50;5092300;28;20639;-78
2022/06/28 03:06:31;;;;;;;6.13;4.60;;;;;;;17.71;82.55;94882.72;5091889;28;20238;-78
2022/06/28 03:08:58;;;;;;;6.45;4.60;;;;;;;18.22;81.68;94879.56;5091963;28;20198;-78
2022/06/28 03:11:24;;;;;;;7.38;5.00;;;;;;;18.72;79.18;94864.59;5091956;28;20206;-78
2022/06/28 03:13:51;;;;;;;6.32;4.47;;;;;;;19.41;76.31;94866.91;5092421;28;20218;-78
2022/06/28 03:16:18;;;;;;;7.50;4.93;;;;;;;20.12;74.42;94862.03;5091207;28;20213;-77
2022/06/28 03:18:45;;;;;;;10.13;4.78;;;;;;;20.76;71.01;94852.22;5092056;28;20769;-77
2022/06/28 03:21:13;;;;;;;6.30;4.68;;;;;;;21.72;68.41;94863.53;5092063;28;20210;-78
2022/06/28 03:23:40;;;;;;;4.88;4.35;;;;;;;22.25;66.17;94854.47;5078731;28;20256;-77
2022/06/28 03:26:06;;;;;;;6.82;4.82;;;;;;;22.82;63.89;94846.84;5091493;28;20291;-78
2022/06/28 03:28:33;;;;;;;12.48;4.82;;;;;;;23.30;62.48;94849.75;5092270;28;20206;-77
2022/06/28 03:31:00;;;;;;;8.57;4.18;;;;;;;24.04;59.96;94842.16;5091660;28;20267;-77
2022/06/28 03:33:27;;;;;;;6.95;4.30;;;;;;;24.05;59.75;94838.97;5092124;28;20218;-78
2022/06/28 03:35:54;;;;;;;7.53;4.28;;;;;;;24.59;57.88;94844.03;5091564;28;20221;-77
2022/06/28 03:38:22;;;;;;;6.38;5.70;;;;;;;24.44;58.24;94846.16;5091230;28;20297;-78
2022/06/28 03:40:49;;;;;;;6.63;5.82;;;;;;;24.37;57.57;94849.78;5091535;28;20202;-77
2022/06/28 03:43:15;;;;;;;5.78;5.20;;;;;;;25.24;55.40;94853.97;5084193;28;20222;-78
2022/06/28 03:45:42;;;;;;;6.30;5.70;;;;;;;25.75;53.67;94852.09;5090517;28;20275;-76
2022/06/28 03:48:09;;;;;;;7.82;5.43;;;;;;;25.37;54.33;94852.22;5090463;28;20226;-79
2022/06/28 03:50:36;;;;;;;6.03;5.40;;;;;;;25.70;53.54;94856.09;5091158;28;20608;-79
2022/06/28 03:53:03;;;;;;;7.70;5.70;;;;;;;26.56;52.12;94855.50;5091132;28;20222;-79
2022/06/28 03:55:31;;;;;;;8.90;6.30;;;;;;;26.96;50.68;94856.38;5091068;28;20209;-79
2022/06/28 03:57:58;;;;;;;5.90;5.15;;;;;;;27.10;50.22;94863.63;5091367;28;20611;-78
2022/06/28 04:00:25;;;;;;;7.47;5.60;;;;;;;27.51;49.42;94863.94;5091408;28;20206;-79
2022/06/28 04:02:52;;;;;;;9.90;6.05;;;;;;;27.78;48.31;94866.56;5091149;28;20275;-79
2022/06/28 04:05:19;;;;;;;7.45;6.15;;;;;;;28.55;46.66;94865.13;5091191;28;20226;-80
2022/06/28 04:07:45;;;;;;;12.05;6.00;;;;;;;28.61;46.25;94878.09;5091226;28;20475;-82
2022/06/28 04:10:12;;;;;;;9.25;6.07;;;;;;;28.97;45.20;94875.16;5090928;28;20732;-82
2022/06/28 04:12:40;;;;;;;10.15;6.80;;;;;;;28.81;45.60;94883.56;5092648;28;20255;-87
2022/06/28 04:15:08;;;;;;;7.65;6.05;;;;;;;29.47;44.25;94876.56;5091957;28;20230;-80
2022/06/28 04:17:35;;;;;;;7.90;5.90;;;;;;;28.95;44.77;94885.97;5091044;28;20226;-80
2022/06/28 04:20:01;;;;;;;6.57;5.68;;;;;;;29.69;43.82;94888.66;5090486;28;20721;-82
2022/06/28 04:22:28;;;;;;;6.90;6.20;;;;;;;30.36;42.28;94880.19;5091700;28;20274;-83
2022/06/28 04:24:55;;;;;;;8.38;6.38;;;;;;;31.45;40.44;94874.78;5090387;28;20299;-83
2022/06/28 04:27:22;;;;;;;10.52;8.23;;;;;;;30.61;41.78;94884.22;5093031;28;20338;-83
2022/06/28 04:29:50;;;;;;;13.27;8.45;;;;;;;31.55;40.33;94884.06;5094656;28;20661;-83
2022/06/28 04:32:17;;;;;;;17.75;12.13;;;;;;;31.85;39.71;94881.72;5095070;28;20342;-84
2022/06/28 04:34:43;;;;;;;24.23;15.48;;;;;;;31.65;39.98;94882.88;5095256;28;20226;-84
2022/06/28 04:37:10;;;;;;;19.67;13.63;;;;;;;31.05;40.67;94891.44;5095387;28;20222;-84
2022/06/28 04:39:37;;;;;;;18.95;12.98;;;;;;;32.07;38.84;94888.09;5095037;28;20672;-81
2022/06/28 04:42:05;;;;;;;22.88;12.68;;;;;;;31.95;39.84;94886.16;5095133;28;20719;-84
2022/06/28 04:44:32;;;;;;;20.40;12.85;;;;;;;31.94;39.00;94881.78;5095017;28;20297;-81
2022/06/28 04:47:00;;;;;;;24.83;16.10;;;;;;;31.11;40.73;94899.28;5095121;28;20596;-83
2022/06/28 04:49:27;;;;;;;28.52;19.95;;;;;;;30.93;41.44;94883.88;5095210;28;20240;-83
2022/06/28 04:51:54;;;;;;;28.75;19.10;;;;;;;31.44;40.48;94884.44;5095246;28;20745;-82
2022/06/28 04:54:20;;;;;;;26.73;19.38;;;;;;;30.57;41.59;94877.94;5095850;28;20239;-82
2022/06/28 04:56:47;;;;;;;27.27;18.48;;;;;;;31.44;40.19;94884.44;5095025;28;20625;-83
2022/06/28 04:59:14;;;;;;;24.45;18.67;;;;;;;30.58;41.45;94896.28;5095885;28;20206;-87
2022/06/28 05:01:41;;;;;;;21.20;15.35;;;;;;;28.92;45.13;94902.81;5095060;28;20243;-87
2022/06/28 05:04:10;;;;;;;18.42;13.68;;;;;;;30.39;43.15;94890.47;5094548;28;20206;-84
2022/06/28 05:06:37;;;;;;;13.32;10.18;;;;;;;31.29;41.16;94899.44;5095354;28;20237;-86
2022/06/28 05:09:04;;;;;;;11.95;9.77;;;;;;;31.76;39.98;94900.06;5095837;28;20214;-86
2022/06/28 05:11:31;;;;;;;13.88;9.48;;;;;;;31.77;40.12;94893.22;5095061;28;20252;-85
2022/06/28 05:13:58;;;;;;;10.57;8.77;;;;;;;31.88;40.03;94894.81;5095137;28;20226;-81
2022/06/28 05:16:25;;;;;;;12.18;8.65;;;;;;;30.73;41.98;94894.56;5096422;28;20293;-84
2022/06/28 05:18:51;;;;;;;13.73;9.25;;;;;;;30.48;42.29;94892.56;5100330;28;20224;-85
2022/06/28 05:21:20;;;;;;;10.18;7.75;;;;;;;31.58;40.64;94885.91;5100194;28;20665;-84
2022/06/28 05:23:46;;;;;;;10.77;8.95;;;;;;;32.24;39.23;94883.81;5094774;28;20244;-87
2022/06/28 05:26:13;;;;;;;14.15;8.75;;;;;;;32.59;39.07;94880.78;5094940;28;20287;-84
2022/06/28 05:28:40;;;;;;;13.07;9.45;;;;;;;31.60;40.66;94880.63;5094401;28;20230;-84
2022/06/28 05:31:07;;;;;;;12.32;9.82;;;;;;;32.07;39.03;94883.25;5094860;28;20308;-86
2022/06/28 05:33:34;;;;;;;14.93;10.90;;;;;;;32.04;38.94;94891.78;5094790;28;20990;-85
2022/06/28 05:36:01;;;;;;;13.43;9.07;;;;;;;32.52;38.67;94881.09;5093913;28;20264;-86
2022/06/28 05:38:30;;;;;;;12.75;9.10;;;;;;;31.87;39.50;94885.63;5093955;28;20202;-83
2022/06/28 05:40:57;;;;;;;21.75;9.55;;;;;;;31.69;39.99;94889.16;5094286;28;20218;-83
2022/06/28 05:43:23;;;;;;;11.63;8.90;;;;;;;31.52;40.29;94887.75;5094428;28;20230;-85
2022/06/28 05:45:50;;;;;;;12.02;9.13;;;;;;;31.87;39.94;94887.66;5095129;28;20284;-90
2022/06/28 05:48:17;;;;;;;10.90;9.63;;;;;;;32.91;38.11;94885.06;5094687;28;20299;-84
2022/06/28 05:50:44;;;;;;;14.00;9.90;;;;;;;33.58;36.82;94893.34;5094320;28;20214;-86
2022/06/28 05:53:10;;;;;;;12.93;9.20;;;;;;;33.87;36.34;94898.47;5095005;28;20267;-85
2022/06/28 05:55:39;;;;;;;12.90;10.48;;;;;;;32.73;37.22;94902.66;5095161;28;20230;-79
2022/06/28 05:58:06;;;;;;;18.23;10.32;;;;;;;33.83;36.08;94898.63;5094214;28;20284;-83
2022/06/28 06:00:33;;;;;;;12.60;9.63;;;;;;;31.98;39.18;94910.47;5094384;28;20765;-86
2022/06/28 06:03:00;;;;;;;12.95;9.50;;;;;;;32.18;38.38;94916.47;5094503;28;20198;-87
2022/06/28 06:05:27;;;;;;;12.63;8.60;;;;;;;32.71;38.31;94905.13;5093633;28;20218;-83
2022/06/28 06:07:54;;;;;;;14.13;8.82;;;;;;;33.78;36.81;94907.69;5093719;28;20245;-85
2022/06/28 06:10:21;;;;;;;14.25;8.77;;;;;;;32.15;38.82;94911.78;5094720;28;20198;-84
2022/06/28 06:12:49;;;;;;;13.65;9.45;;;;;;;34.29;35.62;94906.94;5094584;28;20225;-84
2022/06/28 06:15:16;;;;;;;14.60;9.35;;;;;;;34.18;35.61;94906.63;5094898;28;20202;-85
2022/06/28 06:17:43;;;;;;;11.30;8.52;;;;;;;34.97;34.46;94898.75;5095002;28;20591;-85
2022/06/28 06:20:11;;;;;;;11.77;8.85;;;;;;;34.97;34.86;94893.13;5093500;28;20558;-85
2022/06/28 06:22:38;;;;;;;13.23;8.95;;;;;;;35.88;33.89;94885.94;5093460;28;20222;-83
2022/06/28 06:25:06;;;;;;;12.48;9.60;;;;;;;35.26;33.56;94884.75;5093232;28;20230;-80
2022/06/28 06:27:33;;;;;;;15.10;9.02;;;;;;;36.07;33.76;94886.50;5093482;28;20284;-85
2022/06/28 06:30:01;;;;;;;10.80;8.95;;;;;;;36.96;31.59;94877.34;5092805;28;20239;-85
2022/06/28 06:32:28;;;;;;;14.73;9.75;;;;;;;36.04;32.09;94879.78;5093443;28;20391;-81
2022/06/28 06:34:54;;;;;;;13.80;8.73;;;;;;;36.11;31.73;94887.06;5093079;28;20317;-85
2022/06/28 06:37:21;;;;;;;12.52;9.15;;;;;;;34.95;33.53;94881.56;5088986;28;20452;-82
2022/06/28 06:39:48;;;;;;;12.90;8.43;;;;;;;34.97;33.24;94879.03;5082407;28;20230;-84
2022/06/28 06:42:15;;;;;;;13.52;8.85;;;;;;;35.19;33.61;94871.03;5092371;28;20206;-85
2022/06/28 06:44:42;;;;;;;12.88;8.77;;;;;;;35.69;32.65;94867.59;5092236;28;20589;-79
2022/06/28 06:47:10;;;;;;;9.57;7.47;;;;;;;36.85;31.63;94865.91;5092500;28;20287;-85
2022/06/28 06:49:37;;;;;;;10.20;8.10;;;;;;;37.58;30.30;94863.94;5078672;28;20225;-86
2022/06/28 06:52:04;;;;;;;11.15;7.63;;;;;;;36.81;30.83;94858.91;5091082;28;20687;-84
2022/06/28 06:54:31;;;;;;;9.82;7.38;;;;;;;37.55;30.67;94857.22;5089783;28;20248;-83
2022/06/28 06:56:58;;;;;;;10.98;7.82;;;;;;;37.28;30.67;94852.84;5086414;28;20299;-84
2022/06/28 06:59:25;;;;;;;11.18;8.10;;;;;;;37.58;30.76;94852.63;5091972;28;20222;-88
2022/06/28 07:01:52;;;;;;;13.70;8.02;;;;;;;36.81;30.62;94848.38;5092339;28;20543;-88
2022/06/28 07:04:20;;;;;;;11.02;7.28;;;;;;;36.36;32.41;94852.59;5092819;28;20283;-84
2022/06/28 07:06:47;;;;;;;9.05;7.43;;;;;;;36.11;32.65;94854.00;5092654;28;20222;-82
2022/06/28 07:09:15;;;;;;;11.18;7.10;;;;;;;34.36;34.80;94867.19;5091847;28;20231;-77
2022/06/28 07:11:42;;;;;;;9.85;6.55;;;;;;;34.78;35.01;94853.03;5092074;28;20229;-81
2022/06/28 07:14:09;;;;;;;7.13;5.93;;;;;;;33.46;35.32;94864.19;5091593;28;20202;-77
2022/06/28 07:16:35;;;;;;;10.15;6.20;;;;;;;34.49;34.29;94856.47;5091790;28;20301;-82
2022/06/28 07:19:03;;;;;;;7.00;6.25;;;;;;;35.22;32.57;94847.53;5092245;28;20235;-87
2022/06/28 07:21:31;;;;;;;6.93;5.43;;;;;;;35.70;31.73;94846.59;5091825;28;20210;-81
2022/06/28 07:23:58;;;;;;;5.88;5.28;;;;;;;36.75;30.49;94849.59;5092104;28;20710;-87
2022/06/28 07:26:25;;;;;;;7.15;5.43;;;;;;;34.45;33.70;94853.06;5091715;28;20275;-82
2022/06/28 07:28:52;;;;;;;5.20;4.45;;;;;;;35.16;32.88;94849.44;5091936;28;20271;-85
2022/06/28 07:31:19;;;;;;;6.03;4.60;;;;;;;36.29;30.98;94841.72;5091469;28;20230;-86
2022/06/28 07:33:45;;;;;;;6.32;5.00;;;;;;;35.35;31.10;94850.09;5092054;28;20222;-82
2022/06/28 07:36:13;;;;;;;5.75;5.15;;;;;;;34.50;32.10;94860.84;5091703;28;20202;-82
2022/06/28 07:38:41;;;;;;;7.70;5.28;;;;;;;34.75;32.37;94859.59;5091324;28;20280;-81
2022/06/28 07:41:08;;;;;;;7.28;4.80;;;;;;;34.05;33.00;94864.63;5091298;28;20198;-78
2022/06/28 07:43:34;;;;;;;7.60;5.20;;;;;;;34.87;32.97;94855.00;5090964;28;20708;-83
2022/06/28 07:46:02;;;;;;;5.47;4.63;;;;;;;34.76;33.11;94866.00;5090982;28;20239;-83
2022/06/28 07:48:28;;;;;;;5.22;4.70;;;;;;;33.11;34.15;94871.34;5091037;28;20324;-75
2022/06/28 07:53:40;;;;;;;7.05;5.03;;;;;;;33.38;34.14;94867.75;5091304;28;20283;-78
2022/06/28 07:56:07;;;;;;;6.90;4.80;;;;;;;33.19;35.52;94864.97;5091141;28;20218;-84
2022/06/28 07:58:34;;;;;;;5.82;5.22;;;;;;;33.99;33.62;94871.41;5091424;28;20283;-83
2022/06/28 08:01:01;;;;;;;6.28;5.30;;;;;;;34.40;33.22;94867.03;5091173;28;20218;-83
2022/06/28 08:03:28;;;;;;;6.00;5.15;;;;;;;34.61;33.31;94848.28;5090871;28;20701;-84
2022/06/28 08:05:55;;;;;;;5.70;5.00;;;;;;;34.02;34.59;94853.59;5091140;28;20346;-83
2022/06/28 08:08:22;;;;;;;6.95;5.38;;;;;;;33.64;33.63;94849.28;5091068;28;20721;-78
2022/06/28 08:10:50;;;;;;;5.68;4.78;;;;;;;32.84;35.05;94846.84;5077170;28;20229;-76
2022/06/28 08:13:17;;;;;;;6.22;5.10;;;;;;;32.59;35.52;94847.91;5091373;28;20202;-82
2022/06/28 08:15:44;;;;;;;5.72;4.80;;;;;;;32.91;35.61;94837.34;5091239;28;20243;-84
2022/06/28 08:18:11;;;;;;;5.50;4.40;;;;;;;32.64;34.97;94840.91;5091163;28;20207;-84
2022/06/28 08:20:38;;;;;;;6.35;4.40;;;;;;;31.92;35.42;94845.03;5091064;28;20628;-85
2022/06/28 08:23:05;;;;;;;7.35;4.10;;;;;;;31.94;36.50;94845.34;5091042;28;20202;-73
2022/06/28 08:25:32;;;;;;;5.95;4.30;;;;;;;31.41;37.68;94839.78;5091779;28;20252;-79
2022/06/28 08:28:00;;;;;;;6.25;4.80;;;;;;;31.20;37.31;94843.34;5093485;28;20234;-81
2022/06/28 08:30:27;;;;;;;6.50;4.88;;;;;;;31.08;37.90;94850.56;5091023;28;20683;-83
2022/06/28 08:32:55;;;;;;;5.10;4.50;;;;;;;31.18;39.01;94849.41;5090825;28;20199;-84
2022/06/28 08:35:22;;;;;;;5.05;4.13;;;;;;;31.88;36.18;94847.19;5090664;28;20382;-84
2022/06/28 08:37:49;;;;;;;4.72;4.05;;;;;;;32.65;34.54;94846.03;5090744;28;20325;-82
2022/06/28 08:40:16;;;;;;;5.60;4.30;;;;;;;32.68;34.87;94838.69;5090722;28;20268;-83
2022/06/28 08:42:48;;;;;;;6.90;4.05;;;;;;;33.53;33.20;94846.97;5088275;28;20202;-83
2022/06/28 08:45:17;;;;;;;4.97;4.25;;;;;;;31.34;35.97;94862.44;5090371;28;20233;-81
2022/06/28 08:47:47;;;;;;;5.03;4.00;;;;;;;31.66;35.98;94848.03;5087716;28;20434;-82
2022/06/28 08:50:16;;;;;;;5.63;4.10;;;;;;;31.14;37.45;94848.00;5090257;28;20422;-81
2022/06/28 08:52:44;;;;;;;5.50;3.88;;;;;;;30.06;38.88;94854.84;5089378;28;20259;-81
2022/06/28 08:55:13;;;;;;;5.95;4.35;;;;;;;29.89;38.99;94856.94;5088329;28;20214;-81
2022/06/28 08:57:41;;;;;;;5.63;3.97;;;;;;;30.59;38.55;94847.50;5090137;28;20202;-82
2022/06/28 09:00:11;;;;;;;3.55;3.25;;;;;;;30.60;37.83;94849.84;5090075;28;20585;-83
2022/06/28 09:02:39;;;;;;;6.97;3.95;;;;;;;31.42;38.50;94844.13;5090092;28;20214;-81
2022/06/28 09:05:06;;;;;;;5.18;4.10;;;;;;;31.17;37.37;94847.06;5090559;28;20661;-78
2022/06/28 09:07:33;;;;;;;4.63;4.13;;;;;;;31.81;37.60;94841.88;5090579;28;20218;-82
2022/06/28 09:10:00;;;;;;;8.23;3.78;;;;;;;32.62;36.19;94837.78;5090596;28;20738;-82
2022/06/28 09:12:27;;;;;;;4.95;3.90;;;;;;;32.52;35.62;94842.59;5090885;28;20202;-82
2022/06/28 09:14:54;;;;;;;6.80;4.15;;;;;;;32.43;37.04;94845.38;5093169;28;20256;-84
2022/06/28 09:17:23;;;;;;;5.03;4.10;;;;;;;31.10;36.88;94853.72;5094380;28;20202;-82
2022/06/28 09:19:54;;;;;;;5.68;3.78;;;;;;;31.06;38.09;94848.22;5094851;28;20230;-82
2022/06/28 09:22:33;;;;;;;4.38;3.47;;;;;;;30.85;37.53;94843.38;5094535;28;20222;-82
2022/06/28 09:25:02;;;;;;;4.97;4.10;;;;;;;30.05;38.62;94848.47;5094421;28;20237;-83
2022/06/28 09:27:31;;;;;;;4.45;4.05;;;;;;;30.39;38.35;94848.53;5094510;28;20241;-82
2022/06/28 09:29:58;;;;;;;7.18;3.95;;;;;;;30.34;38.42;94848.31;5094177;28;20229;-83
2022/06/28 09:32:30;;;;;;;6.38;3.90;;;;;;;29.93;39.43;94849.25;5094501;28;20229;-82
2022/06/28 09:35:01;;;;;;;4.05;3.65;;;;;;;30.95;37.36;94836.63;5093794;28;20704;-83
2022/06/28 09:37:37;;;;;;;4.78;3.58;;;;;;;30.06;39.03;94838.88;5094088;28;20194;-85
2022/06/28 09:40:12;;;;;;;5.82;4.25;;;;;;;29.58;40.29;94853.91;5093929;28;20222;-80
2022/06/28 09:42:39;;;;;;;4.00;3.60;;;;;;;29.83;39.46;94839.16;5094099;28;20229;-81
2022/06/28 09:45:07;;;;;;;5.25;4.00;;;;;;;30.07;38.89;94843.19;5093888;28;20194;-78
2022/06/28 09:47:34;;;;;;;4.95;4.03;;;;;;;29.48;39.34;94843.84;5093179;28;20268;-79
2022/06/28 09:50:06;;;;;;;5.57;3.63;;;;;;;30.14;38.73;94828.22;5094027;28;20222;-76
2022/06/28 09:52:34;;;;;;;5.05;3.60;;;;;;;30.23;38.05;94826.28;5093397;28;20709;-82
2022/06/28 09:55:02;;;;;;;5.13;3.90;;;;;;;30.60;39.01;94821.09;5093915;28;20222;-82
2022/06/28 09:57:30;;;;;;;6.95;3.80;;;;;;;31.45;38.89;94818.78;5093632;28;20226;-81
2022/06/28 09:59:58;;;;;;;4.22;3.83;;;;;;;31.97;37.15;94820.00;5093874;28;20226;-82
2022/06/28 10:02:26;;;;;;;4.60;4.07;;;;;;;31.58;37.23;94821.47;5093600;28;20198;-82
2022/06/28 10:04:53;;;;;;;4.20;3.80;;;;;;;31.67;37.53;94815.97;5093329;28;20779;-79
2022/06/28 10:07:23;;;;;;;5.07;3.78;;;;;;;30.98;36.61;94818.94;5093450;28;20202;-81
2022/06/28 10:09:50;;;;;;;5.05;4.05;;;;;;;30.99;37.43;94814.13;5093703;28;20709;-83
2022/06/28 10:15:05;;;;;;;4.57;3.95;;;;;;;30.61;38.28;94828.25;5093086;28;20264;-83
2022/06/28 10:17:45;;;;;;;4.20;3.80;;;;;;;30.76;37.80;94809.72;5093735;28;20225;-80
2022/06/28 10:20:20;;;;;;;6.20;4.10;;;;;;;31.25;37.96;94804.38;5093484;28;20226;-81
2022/06/28 10:22:48;;;;;;;4.78;3.80;;;;;;;32.06;36.38;94794.00;5093155;28;20194;-82
2022/06/28 10:25:17;;;;;;;5.45;4.00;;;;;;;31.94;35.99;94803.31;5092788;28;20283;-79
2022/06/28 10:27:46;;;;;;;5.13;4.22;;;;;;;31.57;36.99;94797.50;5093281;28;20230;-83
2022/06/28 10:30:34;;;;;;;4.05;3.65;;;;;;;31.19;36.80;94794.19;5092981;28;20230;-82
2022/06/28 10:33:05;;;;;;;5.03;3.95;;;;;;;32.20;36.40;94787.84;5093334;28;20233;-81
2022/06/28 10:36:12;;;;;;;6.43;3.53;;;;;;;32.84;35.00;94785.09;5093374;28;20198;-80
2022/06/28 10:39:19;;;;;;;5.07;3.88;;;;;;;32.76;35.07;94795.09;5082341;28;20722;-80
2022/06/28 10:41:48;;;;;;;4.50;3.90;;;;;;;31.42;36.03;94785.31;5081611;28;20222;-82
2022/06/28 10:44:17;;;;;;;4.20;3.80;;;;;;;31.49;36.51;94784.25;5093014;28;20236;-82
2022/06/28 10:46:50;;;;;;;3.67;3.38;;;;;;;30.95;37.70;94786.25;5092364;28;20286;-80
2022/06/28 10:49:17;;;;;;;5.50;3.72;;;;;;;31.27;36.19;94789.91;5092469;28;20226;-81
2022/06/28 10:52:08;;;;;;;3.70;3.40;;;;;;;30.80;36.72;94792.81;5092901;28;20226;-80
2022/06/28 10:54:38;;;;;;;3.45;3.15;;;;;;;31.18;35.53;94787.03;5079683;28;20637;-81
2022/06/28 10:57:20;;;;;;;4.00;3.35;;;;;;;30.73;37.52;94786.25;5092386;28;20599;-83
2022/06/28 10:59:50;;;;;;;3.92;3.50;;;;;;;29.62;39.08;94791.13;5092657;28;20236;-80
2022/06/28 11:02:17;;;;;;;3.55;3.22;;;;;;;29.38;39.91;94772.34;5092046;28;20602;-81
2022/06/28 11:04:45;;;;;;;4.80;3.30;;;;;;;29.67;39.67;94776.59;5092062;28;20229;-81
2022/06/28 11:07:23;;;;;;;4.30;3.90;;;;;;;30.12;38.57;94766.41;5092515;28;20201;-83
2022/06/28 11:10:11;;;;;;;5.70;3.88;;;;;;;30.37;39.02;94755.13;5092954;28;20317;-81
2022/06/28 11:12:40;;;;;;;5.50;3.85;;;;;;;30.72;38.36;94759.50;5080956;28;20274;-82
2022/06/28 11:15:09;;;;;;;4.28;3.88;;;;;;;30.63;39.80;94758.63;5092705;28;20202;-81
2022/06/28 11:17:38;;;;;;;5.18;3.95;;;;;;;31.07;37.86;94754.59;5091722;28;20302;-81
2022/06/28 11:20:07;;;;;;;5.05;3.90;;;;;;;31.63;36.76;94759.25;5091653;28;20210;-81
2022/06/28 11:22:39;;;;;;;4.45;3.72;;;;;;;30.62;38.45;94762.66;5092040;28;20252;-79
2022/06/28 11:25:08;;;;;;;5.15;3.63;;;;;;;30.01;39.40;94766.75;5091673;28;20291;-80
2022/06/28 11:27:41;;;;;;;6.78;4.03;;;;;;;29.52;40.41;94767.09;5092747;28;20195;-83
2022/06/28 11:30:09;;;;;;;4.22;3.83;;;;;;;28.86;39.90;94781.81;5092468;28;20234;-83
2022/06/28 11:32:38;;;;;;;4.60;3.70;;;;;;;28.68;40.47;94771.16;5092007;28;20222;-80
2022/06/28 11:35:07;;;;;;;6.63;3.58;;;;;;;28.51;41.18;94759.28;5091295;28;20214;-81
2022/06/28 11:37:47;;;;;;;6.30;4.05;;;;;;;28.75;41.50;94765.38;5090796;28;20195;-81
2022/06/28 11:40:15;;;;;;;5.88;3.70;;;;;;;30.12;39.16;94753.22;5091780;28;20249;-81
2022/06/28 11:42:43;;;;;;;4.95;3.65;;;;;;;30.90;37.99;94756.03;5085581;28;20209;-80
2022/06/28 11:45:12;;;;;;;7.50;4.00;;;;;;;31.21;37.44;94760.94;5091626;28;20219;-80
2022/06/28 11:47:42;;;;;;;4.22;3.67;;;;;;;30.81;37.35;94764.38;5091053;28;20324;-81
2022/06/28 11:50:16;;;;;;;3.58;3.22;;;;;;;30.52;37.63;94769.41;5091560;28;20234;-79